sensor_id;sensor_type;location;lat;lon;timestamp;pressure;altitude;pressure_sealevel;temperature
28905;BMP280;60848;53.884;11.446;2023-11-22T00:01:38;102494.56;;;4.72
28905;BMP280;60848;53.884;11.446;2023-11-22T00:04:07;102507.78;;;4.70
28905;BMP280;60848;53.884;11.446;2023-11-22T00:06:35;102512.00;;;4.66
28905;BMP280;60848;53.884;11.446;2023-11-22T00:09:04;102518.47;;;4.63
28905;BMP280;60848;53.884;11.446;2023-11-22T00:11:34;102511.22;;;4.60
28905;BMP280;60848;53.884;11.446;2023-11-22T00:14:02;102514.09;;;4.59
28905;BMP280;60848;53.884;11.446;2023-11-22T00:16:31;102510.22;;;4.56
28905;BMP280;60848;53.884;11.446;2023-11-22T00:19:01;102529.41;;;4.55
28905;BMP280;60848;53.884;11.446;2023-11-22T00:21:30;102531.75;;;4.52
28905;BMP280;60848;53.884;11.446;2023-11-22T00:23:58;102525.56;;;4.48
28905;BMP280;60848;53.884;11.446;2023-11-22T00:26:27;102527.94;;;4.44
28905;BMP280;60848;53.884;11.446;2023-11-22T00:28:58;102523.28;;;4.41
28905;BMP280;60848;53.884;11.446;2023-11-22T00:31:27;102534.16;;;4.38
28905;BMP280;60848;53.884;11.446;2023-11-22T00:33:56;102532.38;;;4.34
28905;BMP280;60848;53.884;11.446;2023-11-22T00:36:25;102528.56;;;4.31
28905;BMP280;60848;53.884;11.446;2023-11-22T00:38:54;102523.09;;;4.28
28905;BMP280;60848;53.884;11.446;2023-11-22T00:41:22;102529.63;;;4.25
28905;BMP280;60848;53.884;11.446;2023-11-22T00:43:51;102533.78;;;4.21
28905;BMP280;60848;53.884;11.446;2023-11-22T00:46:21;102535.06;;;4.19
28905;BMP280;60848;53.884;11.446;2023-11-22T00:48:50;102538.69;;;4.18
28905;BMP280;60848;53.884;11.446;2023-11-22T00:51:20;102552.94;;;4.15
28905;BMP280;60848;53.884;11.446;2023-11-22T00:53:53;102550.13;;;4.12
28905;BMP280;60848;53.884;11.446;2023-11-22T00:56:21;102547.03;;;4.10
28905;BMP280;60848;53.884;11.446;2023-11-22T00:58:50;102526.63;;;4.03
28905;BMP280;60848;53.884;11.446;2023-11-22T01:01:20;102537.22;;;4.02
28905;BMP280;60848;53.884;11.446;2023-11-22T01:03:48;102543.97;;;3.98
28905;BMP280;60848;53.884;11.446;2023-11-22T01:06:17;102552.78;;;3.97
28905;BMP280;60848;53.884;11.446;2023-11-22T01:08:46;102553.28;;;3.94
28905;BMP280;60848;53.884;11.446;2023-11-22T01:11:16;102564.47;;;3.89
28905;BMP280;60848;53.884;11.446;2023-11-22T01:13:45;102567.84;;;3.85
28905;BMP280;60848;53.884;11.446;2023-11-22T01:16:13;102570.16;;;3.71
28905;BMP280;60848;53.884;11.446;2023-11-22T01:18:43;102576.69;;;3.63
28905;BMP280;60848;53.884;11.446;2023-11-22T01:21:14;102571.28;;;3.50
28905;BMP280;60848;53.884;11.446;2023-11-22T01:23:43;102578.78;;;3.46
28905;BMP280;60848;53.884;11.446;2023-11-22T01:26:12;102581.13;;;3.38
28905;BMP280;60848;53.884;11.446;2023-11-22T01:28:43;102585.75;;;3.31
28905;BMP280;60848;53.884;11.446;2023-11-22T01:31:12;102599.47;;;3.31
28905;BMP280;60848;53.884;11.446;2023-11-22T01:33:42;102598.16;;;3.29
28905;BMP280;60848;53.884;11.446;2023-11-22T01:36:11;102604.91;;;3.35
28905;BMP280;60848;53.884;11.446;2023-11-22T01:38:39;102603.09;;;3.35
28905;BMP280;60848;53.884;11.446;2023-11-22T01:41:08;102599.50;;;3.36
28905;BMP280;60848;53.884;11.446;2023-11-22T01:43:40;102592.50;;;3.37
28905;BMP280;60848;53.884;11.446;2023-11-22T01:46:10;102578.53;;;3.38
28905;BMP280;60848;53.884;11.446;2023-11-22T01:48:42;102582.94;;;3.37
28905;BMP280;60848;53.884;11.446;2023-11-22T01:51:13;102578.53;;;3.33
28905;BMP280;60848;53.884;11.446;2023-11-22T01:53:46;102574.91;;;3.29
28905;BMP280;60848;53.884;11.446;2023-11-22T01:56:15;102576.44;;;3.25
28905;BMP280;60848;53.884;11.446;2023-11-22T01:58:47;102571.81;;;3.17
28905;BMP280;60848;53.884;11.446;2023-11-22T02:01:17;102580.34;;;3.17
28905;BMP280;60848;53.884;11.446;2023-11-22T02:03:46;102575.94;;;3.13
28905;BMP280;60848;53.884;11.446;2023-11-22T02:06:16;102582.69;;;3.14
28905;BMP280;60848;53.884;11.446;2023-11-22T02:08:44;102580.84;;;3.14
28905;BMP280;60848;53.884;11.446;2023-11-22T02:11:13;102580.59;;;3.11
28905;BMP280;60848;53.884;11.446;2023-11-22T02:13:49;102596.38;;;3.14
28905;BMP280;60848;53.884;11.446;2023-11-22T02:16:19;102605.94;;;3.14
28905;BMP280;60848;53.884;11.446;2023-11-22T02:18:48;102613.94;;;3.12
28905;BMP280;60848;53.884;11.446;2023-11-22T02:21:16;102605.16;;;3.13
28905;BMP280;60848;53.884;11.446;2023-11-22T02:23:46;102619.09;;;3.12
28905;BMP280;60848;53.884;11.446;2023-11-22T02:26:16;102612.41;;;3.11
28905;BMP280;60848;53.884;11.446;2023-11-22T02:28:46;102615.00;;;3.11
28905;BMP280;60848;53.884;11.446;2023-11-22T02:31:16;102618.34;;;3.12
28905;BMP280;60848;53.884;11.446;2023-11-22T02:33:44;102622.22;;;3.09
28905;BMP280;60848;53.884;11.446;2023-11-22T02:36:13;102621.97;;;3.11
28905;BMP280;60848;53.884;11.446;2023-11-22T02:38:46;102618.84;;;3.09
28905;BMP280;60848;53.884;11.446;2023-11-22T02:41:14;102632.03;;;3.07
28905;BMP280;60848;53.884;11.446;2023-11-22T02:43:43;102624.56;;;3.06
28905;BMP280;60848;53.884;11.446;2023-11-22T02:46:13;102628.94;;;3.05
28905;BMP280;60848;53.884;11.446;2023-11-22T02:48:42;102626.59;;;3.04
28905;BMP280;60848;53.884;11.446;2023-11-22T02:51:12;102635.13;;;3.04
28905;BMP280;60848;53.884;11.446;2023-11-22T02:53:41;102635.91;;;3.05
28905;BMP280;60848;53.884;11.446;2023-11-22T02:56:13;102635.91;;;3.05
28905;BMP280;60848;53.884;11.446;2023-11-22T02:58:44;102635.13;;;3.04
28905;BMP280;60848;53.884;11.446;2023-11-22T03:01:18;102635.41;;;3.08
28905;BMP280;60848;53.884;11.446;2023-11-22T03:03:49;102634.34;;;3.09
28905;BMP280;60848;53.884;11.446;2023-11-22T03:06:18;102625.56;;;3.05
28905;BMP280;60848;53.884;11.446;2023-11-22T03:08:47;102634.88;;;3.06
28905;BMP280;60848;53.884;11.446;2023-11-22T03:11:17;102634.59;;;3.02
28905;BMP280;60848;53.884;11.446;2023-11-22T03:13:49;102639.75;;;3.02
28905;BMP280;60848;53.884;11.446;2023-11-22T03:16:19;102638.22;;;3.01
28905;BMP280;60848;53.884;11.446;2023-11-22T03:18:48;102643.88;;;2.98
28905;BMP280;60848;53.884;11.446;2023-11-22T03:21:18;102642.09;;;2.99
28905;BMP280;60848;53.884;11.446;2023-11-22T03:23:46;102641.81;;;2.95
28905;BMP280;60848;53.884;11.446;2023-11-22T03:26:15;102643.09;;;2.93
28905;BMP280;60848;53.884;11.446;2023-11-22T03:28:45;102637.44;;;2.91
28905;BMP280;60848;53.884;11.446;2023-11-22T03:31:13;102646.25;;;2.90
28905;BMP280;60848;53.884;11.446;2023-11-22T03:33:42;102644.16;;;2.87
28905;BMP280;60848;53.884;11.446;2023-11-22T03:36:11;102652.94;;;2.86
28905;BMP280;60848;53.884;11.446;2023-11-22T03:38:42;102658.13;;;2.86
28905;BMP280;60848;53.884;11.446;2023-11-22T03:41:11;102663.28;;;2.86
28905;BMP280;60848;53.884;11.446;2023-11-22T03:43:40;102668.44;;;2.86
28905;BMP280;60848;53.884;11.446;2023-11-22T03:46:10;102663.81;;;2.88
28905;BMP280;60848;53.884;11.446;2023-11-22T03:48:40;102663.53;;;2.89
28905;BMP280;60848;53.884;11.446;2023-11-22T03:51:08;102666.91;;;2.90
28905;BMP280;60848;53.884;11.446;2023-11-22T03:53:37;102672.31;;;2.88
28905;BMP280;60848;53.884;11.446;2023-11-22T03:56:06;102669.72;;;2.88
28905;BMP280;60848;53.884;11.446;2023-11-22T03:58:35;102672.31;;;2.88
28905;BMP280;60848;53.884;11.446;2023-11-22T04:01:03;102673.34;;;2.87
28905;BMP280;60848;53.884;11.446;2023-11-22T04:03:33;102682.91;;;2.87
28905;BMP280;60848;53.884;11.446;2023-11-22T04:06:05;102680.56;;;2.85
28905;BMP280;60848;53.884;11.446;2023-11-22T04:08:33;102687.81;;;2.83
28905;BMP280;60848;53.884;11.446;2023-11-22T04:11:03;102681.06;;;2.82
28905;BMP280;60848;53.884;11.446;2023-11-22T04:13:32;102672.03;;;2.80
28905;BMP280;60848;53.884;11.446;2023-11-22T04:16:04;102678.75;;;2.76
28905;BMP280;60848;53.884;11.446;2023-11-22T04:18:37;102692.94;;;2.73
28905;BMP280;60848;53.884;11.446;2023-11-22T04:21:06;102685.13;;;2.68
28905;BMP280;60848;53.884;11.446;2023-11-22T04:23:35;102699.59;;;2.59
28905;BMP280;60848;53.884;11.446;2023-11-22T04:26:04;102698.75;;;2.48
28905;BMP280;60848;53.884;11.446;2023-11-22T04:28:34;102694.53;;;2.37
28905;BMP280;60848;53.884;11.446;2023-11-22T04:31:02;102688.84;;;2.35
28905;BMP280;60848;53.884;11.446;2023-11-22T04:33:31;102691.97;;;2.37
28905;BMP280;60848;53.884;11.446;2023-11-22T04:36:01;102688.63;;;2.37
28905;BMP280;60848;53.884;11.446;2023-11-22T04:38:30;102686.28;;;2.35
28905;BMP280;60848;53.884;11.446;2023-11-22T04:40:58;102693.25;;;2.35
28905;BMP280;60848;53.884;11.446;2023-11-22T04:43:30;102702.28;;;2.32
28905;BMP280;60848;53.884;11.446;2023-11-22T04:45:58;102698.91;;;2.27
28905;BMP280;60848;53.884;11.446;2023-11-22T04:48:27;102682.31;;;2.18
28905;BMP280;60848;53.884;11.446;2023-11-22T04:50:58;102667.56;;;2.13
28905;BMP280;60848;53.884;11.446;2023-11-22T04:53:28;102660.34;;;2.10
28905;BMP280;60848;53.884;11.446;2023-11-22T04:55:56;102661.34;;;2.04
28905;BMP280;60848;53.884;11.446;2023-11-22T04:58:26;102665.44;;;2.00
28905;BMP280;60848;53.884;11.446;2023-11-22T05:00:54;102660.47;;;1.94
28905;BMP280;60848;53.884;11.446;2023-11-22T05:03:23;102654.53;;;1.93
28905;BMP280;60848;53.884;11.446;2023-11-22T05:05:56;102652.94;;;1.87
28905;BMP280;60848;53.884;11.446;2023-11-22T05:08:25;102665.31;;;1.85
28905;BMP280;60848;53.884;11.446;2023-11-22T05:10:56;102660.44;;;1.84
28905;BMP280;60848;53.884;11.446;2023-11-22T05:13:26;102659.84;;;1.76
28905;BMP280;60848;53.884;11.446;2023-11-22T05:15:54;102665.25;;;1.75
28905;BMP280;60848;53.884;11.446;2023-11-22T05:18:23;102673.78;;;1.75
28905;BMP280;60848;53.884;11.446;2023-11-22T05:20:52;102665.00;;;1.76
28905;BMP280;60848;53.884;11.446;2023-11-22T05:23:20;102682.00;;;1.72
28905;BMP280;60848;53.884;11.446;2023-11-22T05:25:50;102697.44;;;1.67
28905;BMP280;60848;53.884;11.446;2023-11-22T05:28:20;102710.03;;;1.64
28905;BMP280;60848;53.884;11.446;2023-11-22T05:30:49;102710.03;;;1.64
28905;BMP280;60848;53.884;11.446;2023-11-22T05:33:17;102708.47;;;1.63
28905;BMP280;60848;53.884;11.446;2023-11-22T05:35:48;102697.38;;;1.62
28905;BMP280;60848;53.884;11.446;2023-11-22T05:38:16;102696.91;;;1.65
28905;BMP280;60848;53.884;11.446;2023-11-22T05:40:45;102720.56;;;1.62
28905;BMP280;60848;53.884;11.446;2023-11-22T05:43:13;102713.63;;;1.63
28905;BMP280;60848;53.884;11.446;2023-11-22T05:45:43;102706.41;;;1.60
28905;BMP280;60848;53.884;11.446;2023-11-22T05:48:19;102711.78;;;1.58
28905;BMP280;60848;53.884;11.446;2023-11-22T05:50:47;102730.84;;;1.57
28905;BMP280;60848;53.884;11.446;2023-11-22T05:53:16;102731.84;;;1.56
28905;BMP280;60848;53.884;11.446;2023-11-22T05:55:46;102738.34;;;1.59
28905;BMP280;60848;53.884;11.446;2023-11-22T05:58:15;102736.53;;;1.59
28905;BMP280;60848;53.884;11.446;2023-11-22T06:00:46;102749.97;;;1.61
28905;BMP280;60848;53.884;11.446;2023-11-22T06:03:14;102763.41;;;1.63
28905;BMP280;60848;53.884;11.446;2023-11-22T06:05:43;102758.25;;;1.63
28905;BMP280;60848;53.884;11.446;2023-11-22T06:08:11;102760.31;;;1.66
28905;BMP280;60848;53.884;11.446;2023-11-22T06:10:40;102754.94;;;1.68
28905;BMP280;60848;53.884;11.446;2023-11-22T06:13:09;102757.81;;;1.71
28905;BMP280;60848;53.884;11.446;2023-11-22T06:15:39;102754.75;;;1.74
28905;BMP280;60848;53.884;11.446;2023-11-22T06:18:09;102756.31;;;1.75
28905;BMP280;60848;53.884;11.446;2023-11-22T06:20:41;102737.47;;;1.75
28905;BMP280;60848;53.884;11.446;2023-11-22T06:23:09;102729.72;;;1.75
28905;BMP280;60848;53.884;11.446;2023-11-22T06:25:38;102722.72;;;1.70
28905;BMP280;60848;53.884;11.446;2023-11-22T06:28:07;102713.16;;;1.66
28905;BMP280;60848;53.884;11.446;2023-11-22T06:30:35;102711.31;;;1.61
28905;BMP280;60848;53.884;11.446;2023-11-22T06:33:03;102707.91;;;1.56
28905;BMP280;60848;53.884;11.446;2023-11-22T06:35:33;102710.13;;;1.47
28905;BMP280;60848;53.884;11.446;2023-11-22T06:38:03;102703.91;;;1.43
28905;BMP280;60848;53.884;11.446;2023-11-22T06:40:31;102690.22;;;1.43
28905;BMP280;60848;53.884;11.446;2023-11-22T06:43:00;102686.56;;;1.39
28905;BMP280;60848;53.884;11.446;2023-11-22T06:45:31;102680.88;;;1.32
28905;BMP280;60848;53.884;11.446;2023-11-22T06:48:01;102664.88;;;1.30
28905;BMP280;60848;53.884;11.446;2023-11-22T06:50:30;102656.84;;;1.26
28905;BMP280;60848;53.884;11.446;2023-11-22T06:53:02;102659.91;;;1.23
28905;BMP280;60848;53.884;11.446;2023-11-22T06:55:31;102677.41;;;1.21
28905;BMP280;60848;53.884;11.446;2023-11-22T06:58:00;102672.97;;;1.17
28905;BMP280;60848;53.884;11.446;2023-11-22T07:00:29;102685.84;;;1.17
28905;BMP280;60848;53.884;11.446;2023-11-22T07:03:00;102694.66;;;1.21
28905;BMP280;60848;53.884;11.446;2023-11-22T07:05:29;102702.94;;;1.23
28905;BMP280;60848;53.884;11.446;2023-11-22T07:07:57;102716.34;;;1.25
28905;BMP280;60848;53.884;11.446;2023-11-22T07:10:30;102702.75;;;1.29
28905;BMP280;60848;53.884;11.446;2023-11-22T07:13:01;102697.94;;;1.38
28905;BMP280;60848;53.884;11.446;2023-11-22T07:15:29;102705.44;;;1.44
28905;BMP280;60848;53.884;11.446;2023-11-22T07:17:58;102708.56;;;1.46
28905;BMP280;60848;53.884;11.446;2023-11-22T07:20:27;102699.56;;;1.49
28905;BMP280;60848;53.884;11.446;2023-11-22T07:22:55;102701.19;;;1.55
28905;BMP280;60848;53.884;11.446;2023-11-22T07:25:24;102705.31;;;1.56
28905;BMP280;60848;53.884;11.446;2023-11-22T07:27:58;102714.88;;;1.60
28905;BMP280;60848;53.884;11.446;2023-11-22T07:30:27;102728.09;;;1.64
28905;BMP280;60848;53.884;11.446;2023-11-22T07:33:00;102725.28;;;1.70
28905;BMP280;60848;53.884;11.446;2023-11-22T07:35:28;102722.53;;;1.77
28905;BMP280;60848;53.884;11.446;2023-11-22T07:37:57;102721.00;;;1.81
28905;BMP280;60848;53.884;11.446;2023-11-22T07:40:25;102725.91;;;1.83
28905;BMP280;60848;53.884;11.446;2023-11-22T07:42:54;102734.22;;;1.90
28905;BMP280;60848;53.884;11.446;2023-11-22T07:45:24;102733.78;;;1.98
28905;BMP280;60848;53.884;11.446;2023-11-22T07:47:54;102744.16;;;2.03
28905;BMP280;60848;53.884;11.446;2023-11-22T07:50:28;102735.91;;;2.06
28905;BMP280;60848;53.884;11.446;2023-11-22T07:52:57;102730.81;;;2.11
28905;BMP280;60848;53.884;11.446;2023-11-22T07:55:26;102738.03;;;2.14
28905;BMP280;60848;53.884;11.446;2023-11-22T07:57:54;102737.78;;;2.15
28905;BMP280;60848;53.884;11.446;2023-11-22T08:00:24;102750.22;;;2.18
28905;BMP280;60848;53.884;11.446;2023-11-22T08:02:55;102754.66;;;2.23
28905;BMP280;60848;53.884;11.446;2023-11-22T08:05:24;102759.03;;;2.27
28905;BMP280;60848;53.884;11.446;2023-11-22T08:07:56;102754.91;;;2.31
28905;BMP280;60848;53.884;11.446;2023-11-22T08:10:24;102751.34;;;2.37
28905;BMP280;60848;53.884;11.446;2023-11-22T08:12:54;102760.94;;;2.42
28905;BMP280;60848;53.884;11.446;2023-11-22T08:15:27;102748.31;;;2.45
28905;BMP280;60848;53.884;11.446;2023-11-22T08:17:55;102740.59;;;2.50
28905;BMP280;60848;53.884;11.446;2023-11-22T08:20:24;102741.91;;;2.53
28905;BMP280;60848;53.884;11.446;2023-11-22T08:22:52;102730.84;;;2.57
28905;BMP280;60848;53.884;11.446;2023-11-22T08:25:21;102734.94;;;2.53
28905;BMP280;60848;53.884;11.446;2023-11-22T08:27:51;102738.03;;;2.55
28905;BMP280;60848;53.884;11.446;2023-11-22T08:30:20;102734.19;;;2.53
28905;BMP280;60848;53.884;11.446;2023-11-22T08:32:51;102735.97;;;2.52
28905;BMP280;60848;53.884;11.446;2023-11-22T08:35:22;102742.94;;;2.52
28905;BMP280;60848;53.884;11.446;2023-11-22T08:37:51;102743.72;;;2.52
28905;BMP280;60848;53.884;11.446;2023-11-22T08:40:22;102740.09;;;2.53
28905;BMP280;60848;53.884;11.446;2023-11-22T08:42:50;102723.84;;;2.53
28905;BMP280;60848;53.884;11.446;2023-11-22T08:45:19;102715.06;;;2.54
28905;BMP280;60848;53.884;11.446;2023-11-22T08:47:47;102716.09;;;2.58
28905;BMP280;60848;53.884;11.446;2023-11-22T08:50:20;102717.69;;;2.59
28905;BMP280;60848;53.884;11.446;2023-11-22T08:52:50;102721.81;;;2.65
28905;BMP280;60848;53.884;11.446;2023-11-22T08:55:20;102723.88;;;2.68
28905;BMP280;60848;53.884;11.446;2023-11-22T08:57:51;102729.88;;;2.74
28905;BMP280;60848;53.884;11.446;2023-11-22T09:00:20;102735.31;;;2.77
28905;BMP280;60848;53.884;11.446;2023-11-22T09:02:50;102738.16;;;2.81
28905;BMP280;60848;53.884;11.446;2023-11-22T09:05:20;102721.13;;;2.85
28905;BMP280;60848;53.884;11.446;2023-11-22T09:07:49;102724.00;;;2.88
28905;BMP280;60848;53.884;11.446;2023-11-22T09:10:18;102737.16;;;2.92
28905;BMP280;60848;53.884;11.446;2023-11-22T09:12:49;102728.66;;;2.96
28905;BMP280;60848;53.884;11.446;2023-11-22T09:15:18;102726.09;;;3.01
28905;BMP280;60848;53.884;11.446;2023-11-22T09:17:53;102728.44;;;3.08
28905;BMP280;60848;53.884;11.446;2023-11-22T09:20:24;102739.84;;;3.12
28905;BMP280;60848;53.884;11.446;2023-11-22T09:22:53;102746.06;;;3.16
28905;BMP280;60848;53.884;11.446;2023-11-22T09:25:22;102741.16;;;3.19
28905;BMP280;60848;53.884;11.446;2023-11-22T09:27:52;102741.91;;;3.25
28905;BMP280;60848;53.884;11.446;2023-11-22T09:30:23;102745.03;;;3.27
28905;BMP280;60848;53.884;11.446;2023-11-22T09:33:03;102752.78;;;3.27
28905;BMP280;60848;53.884;11.446;2023-11-22T09:35:34;102748.44;;;3.32
28905;BMP280;60848;53.884;11.446;2023-11-22T09:40:33;102763.69;;;3.34
28905;BMP280;60848;53.884;11.446;2023-11-22T09:43:03;102765.75;;;3.37
28905;BMP280;60848;53.884;11.446;2023-11-22T09:45:31;102784.13;;;3.40
28905;BMP280;60848;53.884;11.446;2023-11-22T09:48:00;102776.66;;;3.44
28905;BMP280;60848;53.884;11.446;2023-11-22T09:50:38;102781.25;;;3.47
28905;BMP280;60848;53.884;11.446;2023-11-22T09:53:14;102786.97;;;3.49
28905;BMP280;60848;53.884;11.446;2023-11-22T09:55:48;102775.06;;;3.53
28905;BMP280;60848;53.884;11.446;2023-11-22T09:58:16;102774.06;;;3.54
28905;BMP280;60848;53.884;11.446;2023-11-22T10:00:46;102752.59;;;3.53
28905;BMP280;60848;53.884;11.446;2023-11-22T10:03:15;102754.94;;;3.60
28905;BMP280;60848;53.884;11.446;2023-11-22T10:05:47;102745.59;;;3.59
28905;BMP280;60848;53.884;11.446;2023-11-22T10:08:18;102756.50;;;3.66
28905;BMP280;60848;53.884;11.446;2023-11-22T10:10:49;102743.53;;;3.71
28905;BMP280;60848;53.884;11.446;2023-11-22T10:13:21;102750.53;;;3.76
28905;BMP280;60848;53.884;11.446;2023-11-22T10:15:50;102745.38;;;3.81
28905;BMP280;60848;53.884;11.446;2023-11-22T10:18:22;102731.63;;;3.85
28905;BMP280;60848;53.884;11.446;2023-11-22T10:20:53;102718.72;;;3.90
28905;BMP280;60848;53.884;11.446;2023-11-22T10:23:22;102720.50;;;3.95
28905;BMP280;60848;53.884;11.446;2023-11-22T10:25:56;102712.97;;;3.98
28905;BMP280;60848;53.884;11.446;2023-11-22T10:28:26;102714.03;;;4.02
28905;BMP280;60848;53.884;11.446;2023-11-22T10:30:55;102718.94;;;4.09
28905;BMP280;60848;53.884;11.446;2023-11-22T10:33:24;102709.56;;;4.18
28905;BMP280;60848;53.884;11.446;2023-11-22T10:35:59;102698.19;;;4.24
28905;BMP280;60848;53.884;11.446;2023-11-22T10:38:30;102696.38;;;4.29
28905;BMP280;60848;53.884;11.446;2023-11-22T10:40:58;102686.25;;;4.33
28905;BMP280;60848;53.884;11.446;2023-11-22T10:43:28;102690.66;;;4.32
28905;BMP280;60848;53.884;11.446;2023-11-22T10:45:59;102674.06;;;4.33
28905;BMP280;60848;53.884;11.446;2023-11-22T10:48:28;102671.19;;;4.35
28905;BMP280;60848;53.884;11.446;2023-11-22T10:51:00;102676.63;;;4.38
28905;BMP280;60848;53.884;11.446;2023-11-22T10:53:32;102655.63;;;4.40
28905;BMP280;60848;53.884;11.446;2023-11-22T10:56:07;102654.84;;;4.44
28905;BMP280;60848;53.884;11.446;2023-11-22T10:58:47;102649.91;;;4.48
28905;BMP280;60848;53.884;11.446;2023-11-22T11:01:16;102643.91;;;4.52
28905;BMP280;60848;53.884;11.446;2023-11-22T11:03:49;102645.47;;;4.53
28905;BMP280;60848;53.884;11.446;2023-11-22T11:06:24;102638.19;;;4.60
28905;BMP280;60848;53.884;11.446;2023-11-22T11:09:00;102638.97;;;4.61
28905;BMP280;60848;53.884;11.446;2023-11-22T11:11:29;102623.41;;;4.66
28905;BMP280;60848;53.884;11.446;2023-11-22T11:13:59;102608.59;;;4.72
28905;BMP280;60848;53.884;11.446;2023-11-22T11:16:28;102615.06;;;4.74
28905;BMP280;60848;53.884;11.446;2023-11-22T11:18:58;102614.50;;;4.77
28905;BMP280;60848;53.884;11.446;2023-11-22T11:21:28;102602.06;;;4.79
28905;BMP280;60848;53.884;11.446;2023-11-22T11:23:57;102590.66;;;4.80
28905;BMP280;60848;53.884;11.446;2023-11-22T11:26:32;102572.25;;;4.82
28905;BMP280;60848;53.884;11.446;2023-11-22T11:29:02;102570.44;;;4.82
28905;BMP280;60848;53.884;11.446;2023-11-22T11:31:32;102546.06;;;4.83
28905;BMP280;60848;53.884;11.446;2023-11-22T11:34:05;102537.78;;;4.81
28905;BMP280;60848;53.884;11.446;2023-11-22T11:36:40;102539.56;;;4.81
28905;BMP280;60848;53.884;11.446;2023-11-22T11:39:12;102530.25;;;4.80
28905;BMP280;60848;53.884;11.446;2023-11-22T11:41:45;102506.91;;;4.85
28905;BMP280;60848;53.884;11.446;2023-11-22T11:44:14;102495.22;;;4.87
28905;BMP280;60848;53.884;11.446;2023-11-22T11:46:44;102520.63;;;4.85
28905;BMP280;60848;53.884;11.446;2023-11-22T11:49:12;102524.50;;;4.88
28905;BMP280;60848;53.884;11.446;2023-11-22T11:51:43;102520.59;;;4.90
28905;BMP280;60848;53.884;11.446;2023-11-22T11:54:12;102535.59;;;4.93
28905;BMP280;60848;53.884;11.446;2023-11-22T11:56:47;102541.78;;;4.97
28905;BMP280;60848;53.884;11.446;2023-11-22T11:59:18;102532.41;;;5.01
28905;BMP280;60848;53.884;11.446;2023-11-22T12:01:47;102522.03;;;5.01
28905;BMP280;60848;53.884;11.446;2023-11-22T12:04:22;102514.25;;;5.01
28905;BMP280;60848;53.884;11.446;2023-11-22T12:06:52;102516.81;;;5.06
28905;BMP280;60848;53.884;11.446;2023-11-22T12:09:23;102526.13;;;5.07
28905;BMP280;60848;53.884;11.446;2023-11-22T12:11:52;102523.00;;;5.10
28905;BMP280;60848;53.884;11.446;2023-11-22T12:14:24;102506.66;;;5.10
28905;BMP280;60848;53.884;11.446;2023-11-22T12:16:52;102507.69;;;5.09
28905;BMP280;60848;53.884;11.446;2023-11-22T12:19:21;102534.63;;;5.13
28905;BMP280;60848;53.884;11.446;2023-11-22T12:21:51;102546.84;;;5.12
28905;BMP280;60848;53.884;11.446;2023-11-22T12:24:20;102536.72;;;5.11
28905;BMP280;60848;53.884;11.446;2023-11-22T12:26:49;102523.25;;;5.09
28905;BMP280;60848;53.884;11.446;2023-11-22T12:29:18;102512.13;;;5.08
28905;BMP280;60848;53.884;11.446;2023-11-22T12:31:47;102492.69;;;5.06
28905;BMP280;60848;53.884;11.446;2023-11-22T12:34:17;102477.91;;;5.06
28905;BMP280;60848;53.884;11.446;2023-11-22T12:36:47;102472.50;;;5.03
28905;BMP280;60848;53.884;11.446;2023-11-22T12:39:21;102465.19;;;5.05
28905;BMP280;60848;53.884;11.446;2023-11-22T12:41:51;102467.06;;;5.04
28905;BMP280;60848;53.884;11.446;2023-11-22T12:44:46;102460.78;;;5.05
28905;BMP280;60848;53.884;11.446;2023-11-22T12:47:18;102460.00;;;5.05
28905;BMP280;60848;53.884;11.446;2023-11-22T12:49:59;102460.09;;;5.00
28905;BMP280;60848;53.884;11.446;2023-11-22T12:52:28;102451.25;;;5.01
28905;BMP280;60848;53.884;11.446;2023-11-22T12:54:58;102438.84;;;4.98
28905;BMP280;60848;53.884;11.446;2023-11-22T12:57:27;102430.03;;;4.99
28905;BMP280;60848;53.884;11.446;2023-11-22T12:59:58;102435.97;;;4.99
28905;BMP280;60848;53.884;11.446;2023-11-22T13:02:26;102437.53;;;5.00
28905;BMP280;60848;53.884;11.446;2023-11-22T13:04:57;102426.69;;;4.98
28905;BMP280;60848;53.884;11.446;2023-11-22T13:07:26;102431.34;;;4.96
28905;BMP280;60848;53.884;11.446;2023-11-22T13:09:56;102432.09;;;4.97
28905;BMP280;60848;53.884;11.446;2023-11-22T13:12:26;102437.28;;;4.97
28905;BMP280;60848;53.884;11.446;2023-11-22T13:14:55;102442.22;;;4.98
28905;BMP280;60848;53.884;11.446;2023-11-22T13:17:24;102440.38;;;4.99
28905;BMP280;60848;53.884;11.446;2023-11-22T13:19:52;102440.13;;;5.00
28905;BMP280;60848;53.884;11.446;2023-11-22T13:22:21;102449.72;;;5.00
28905;BMP280;60848;53.884;11.446;2023-11-22T13:24:49;102470.97;;;5.02
28905;BMP280;60848;53.884;11.446;2023-11-22T13:27:17;102481.34;;;5.02
28905;BMP280;60848;53.884;11.446;2023-11-22T13:29:47;102483.84;;;5.07
28905;BMP280;60848;53.884;11.446;2023-11-22T13:32:16;102483.03;;;5.11
28905;BMP280;60848;53.884;11.446;2023-11-22T13:34:47;102482.00;;;5.12
28905;BMP280;60848;53.884;11.446;2023-11-22T13:37:22;102491.06;;;5.15
28905;BMP280;60848;53.884;11.446;2023-11-22T13:39:50;102489.22;;;5.15
28905;BMP280;60848;53.884;11.446;2023-11-22T13:42:19;102495.19;;;5.16
28905;BMP280;60848;53.884;11.446;2023-11-22T13:44:49;102497.00;;;5.15
28905;BMP280;60848;53.884;11.446;2023-11-22T13:47:17;102498.56;;;5.16
28905;BMP280;60848;53.884;11.446;2023-11-22T13:49:48;102495.97;;;5.16
28905;BMP280;60848;53.884;11.446;2023-11-22T13:52:17;102498.78;;;5.20
28905;BMP280;60848;53.884;11.446;2023-11-22T13:54:45;102496.47;;;5.18
28905;BMP280;60848;53.884;11.446;2023-11-22T13:57:13;102516.44;;;5.18
28905;BMP280;60848;53.884;11.446;2023-11-22T13:59:42;102511.03;;;5.14
28905;BMP280;60848;53.884;11.446;2023-11-22T14:02:12;102514.13;;;5.16
28905;BMP280;60848;53.884;11.446;2023-11-22T14:04:41;102505.56;;;5.16
28905;BMP280;60848;53.884;11.446;2023-11-22T14:07:09;102492.38;;;5.12
28905;BMP280;60848;53.884;11.446;2023-11-22T14:09:38;102475.25;;;5.11
28905;BMP280;60848;53.884;11.446;2023-11-22T14:12:06;102468.53;;;5.10
28905;BMP280;60848;53.884;11.446;2023-11-22T14:14:35;102460.75;;;5.10